createdAt,value
2019-02-28T00:01:43.243Z,26.76
2019-02-28T00:04:13.473Z,26.70
2019-02-28T00:06:45.182Z,26.75
2019-02-28T00:09:16.225Z,26.81
2019-02-28T00:11:47.315Z,26.81
2019-02-28T00:14:18.300Z,26.80
2019-02-28T00:16:49.378Z,26.75
2019-02-28T00:19:21.018Z,26.75
2019-02-28T00:21:53.142Z,26.79
2019-02-28T00:24:27.184Z,26.75
2019-02-28T00:26:57.026Z,26.74
2019-02-28T00:29:28.074Z,26.76
2019-02-28T00:31:59.084Z,26.80
2019-02-28T00:34:30.143Z,26.81
2019-02-28T00:37:01.158Z,26.81
2019-02-28T00:39:34.819Z,26.84
2019-02-28T00:42:04.883Z,26.86
2019-02-28T00:44:36.000Z,26.83
2019-02-28T00:47:07.105Z,26.85
2019-02-28T00:49:38.148Z,26.86
2019-02-28T00:52:09.215Z,26.89
2019-02-28T00:54:44.183Z,26.87
2019-02-28T00:57:12.996Z,26.89
2019-02-28T00:59:43.989Z,26.90
2019-02-28T01:02:17.636Z,26.87
2019-02-28T01:04:47.828Z,26.88
2019-02-28T01:07:18.984Z,26.90
2019-02-28T01:09:49.979Z,26.90
2019-02-28T01:12:20.976Z,26.91
2019-02-28T01:14:52.034Z,26.89
2019-02-28T01:17:24.018Z,26.91
2019-02-28T01:19:55.923Z,26.92
2019-02-28T01:22:28.111Z,26.92
2019-02-28T01:24:59.192Z,26.94
2019-02-28T01:27:30.284Z,26.93
2019-02-28T01:30:01.351Z,26.94
2019-02-28T01:32:32.885Z,26.94
2019-02-28T01:35:06.815Z,26.94
2019-02-28T01:37:37.834Z,26.95
2019-02-28T01:40:10.421Z,27.00
2019-02-28T01:42:41.415Z,27.01
2019-02-28T01:45:13.269Z,27.01
2019-02-28T01:47:44.360Z,27.07
2019-02-28T01:50:15.408Z,27.06
2019-02-28T01:52:46.509Z,27.08
2019-02-28T01:55:17.498Z,27.11
2019-02-28T01:57:48.503Z,27.08
2019-02-28T02:00:19.557Z,27.10
2019-02-28T02:02:50.686Z,27.13
2019-02-28T02:05:21.672Z,27.15
2019-02-28T02:07:52.885Z,27.13
2019-02-28T02:10:23.940Z,27.15
2019-02-28T02:12:55.043Z,27.16
2019-02-28T02:15:26.000Z,27.19
2019-02-28T02:17:58.089Z,27.21
2019-02-28T02:20:29.142Z,27.18
2019-02-28T02:23:00.233Z,27.19
2019-02-28T02:25:31.280Z,27.20
2019-02-28T02:28:02.375Z,27.19
2019-02-28T02:30:33.454Z,27.20
2019-02-28T02:33:04.552Z,27.19
2019-02-28T02:35:42.161Z,27.22
2019-02-28T02:38:08.348Z,27.22
2019-02-28T02:40:39.356Z,27.24
2019-02-28T02:43:10.538Z,27.24
2019-02-28T02:45:43.466Z,27.28
2019-02-28T02:48:14.428Z,27.27
2019-02-28T02:50:45.510Z,27.29
2019-02-28T02:53:17.351Z,27.27
2019-02-28T02:55:48.645Z,27.31
2019-02-28T02:58:26.913Z,27.30
2019-02-28T03:00:53.009Z,27.28
2019-02-28T03:03:24.279Z,27.30
2019-02-28T03:05:55.469Z,27.33
2019-02-28T03:08:27.549Z,27.33
2019-02-28T03:10:58.617Z,27.33
2019-02-28T03:13:29.948Z,27.35
2019-02-28T03:16:01.028Z,27.40
2019-02-28T03:18:32.136Z,27.37
2019-02-28T03:21:03.374Z,27.41
2019-02-28T03:23:39.753Z,27.40
2019-02-28T03:26:07.574Z,27.42
2019-02-28T03:28:38.995Z,27.41
2019-02-28T03:31:14.205Z,27.42
2019-02-28T03:33:42.982Z,27.43
2019-02-28T03:36:15.619Z,27.44
2019-02-28T03:38:49.854Z,27.43
2019-02-28T03:41:20.950Z,27.38
2019-02-28T03:43:51.965Z,27.42
2019-02-28T03:46:23.050Z,27.46
2019-02-28T03:48:54.153Z,27.47
2019-02-28T03:51:28.425Z,27.46
2019-02-28T03:53:58.299Z,27.50
2019-02-28T03:56:29.537Z,27.51
2019-02-28T03:59:00.769Z,27.52
2019-02-28T04:01:31.955Z,27.53
2019-02-28T04:04:10.999Z,27.52
2019-02-28T04:06:40.787Z,27.54
2019-02-28T04:09:10.124Z,27.55
2019-02-28T04:11:41.188Z,27.57
2019-02-28T04:14:12.279Z,27.56
2019-02-28T04:16:43.453Z,27.61
2019-02-28T04:19:21.227Z,27.57
2019-02-28T04:21:47.909Z,27.60
2019-02-28T04:24:19.010Z,27.58
2019-02-28T04:26:50.076Z,27.57
2019-02-28T04:29:21.248Z,27.60
2019-02-28T04:31:52.492Z,27.58
2019-02-28T04:34:23.494Z,27.59
2019-02-28T04:36:54.562Z,27.61
2019-02-28T04:39:25.702Z,27.62
2019-02-28T04:41:56.762Z,27.63
2019-02-28T04:44:27.773Z,27.64
2019-02-28T04:46:58.827Z,27.63
2019-02-28T04:49:31.039Z,27.62
2019-02-28T04:52:02.039Z,27.67
2019-02-28T04:54:33.048Z,27.64
2019-02-28T04:57:04.141Z,27.71
2019-02-28T04:59:35.189Z,27.69
2019-02-28T05:02:06.256Z,27.70
2019-02-28T05:04:37.281Z,27.66
2019-02-28T05:07:08.358Z,27.69
2019-02-28T05:09:39.515Z,27.73
2019-02-28T05:12:10.500Z,27.72
2019-02-28T05:14:41.581Z,27.71
2019-02-28T05:17:12.654Z,27.70
2019-02-28T05:19:43.747Z,27.70
2019-02-28T05:22:14.906Z,27.72
2019-02-28T05:24:46.053Z,27.73
2019-02-28T05:27:17.098Z,27.71
2019-02-28T05:29:48.259Z,27.71
2019-02-28T05:32:19.328Z,27.71
2019-02-28T05:34:50.973Z,27.72
2019-02-28T05:37:22.850Z,27.74
2019-02-28T05:39:53.851Z,27.75
2019-02-28T05:42:24.928Z,27.71
2019-02-28T05:44:56.232Z,27.66
2019-02-28T05:47:29.460Z,27.67
2019-02-28T05:50:00.379Z,27.67
2019-02-28T05:52:33.698Z,27.65
2019-02-28T05:55:10.105Z,27.67
2019-02-28T05:57:43.521Z,27.65
2019-02-28T06:00:18.290Z,27.64
2019-02-28T06:02:49.302Z,27.67
2019-02-28T06:05:20.539Z,27.66
2019-02-28T06:07:51.670Z,27.67
2019-02-28T06:10:24.676Z,27.65
2019-02-28T06:12:55.685Z,27.67
2019-02-28T06:15:28.935Z,27.70
2019-02-28T06:17:59.636Z,27.73
2019-02-28T06:23:23.043Z,27.72
2019-02-28T06:25:55.756Z,27.76
2019-02-28T06:28:27.695Z,27.76
2019-02-28T06:31:00.337Z,27.77
2019-02-28T06:33:33.557Z,27.75
2019-02-28T06:36:04.672Z,27.71
2019-02-28T06:38:35.699Z,27.70
2019-02-28T06:41:08.699Z,27.74
2019-02-28T06:43:39.845Z,27.72
2019-02-28T06:46:11.087Z,27.73
2019-02-28T06:48:42.248Z,27.76
2019-02-28T06:51:16.874Z,27.73
2019-02-28T06:53:46.389Z,27.73
2019-02-28T06:56:21.914Z,27.71
2019-02-28T06:58:50.313Z,27.73
2019-02-28T07:01:22.863Z,27.74
2019-02-28T07:03:54.097Z,27.75
2019-02-28T07:06:25.291Z,27.76
2019-02-28T07:09:02.020Z,27.82
2019-02-28T07:11:29.447Z,27.89
2019-02-28T07:14:00.655Z,27.89
2019-02-28T07:16:34.494Z,27.82
2019-02-28T07:19:04.636Z,27.71
2019-02-28T07:21:35.813Z,36.27
2019-02-28T07:24:06.755Z,29.33
2019-02-28T07:26:37.801Z,28.95
2019-02-28T07:29:11.969Z,28.85
2019-02-28T07:31:41.861Z,28.81
2019-02-28T07:34:12.974Z,28.73
2019-02-28T07:36:44.645Z,28.60
2019-02-28T07:39:16.998Z,28.49
2019-02-28T07:41:48.113Z,28.39
2019-02-28T07:44:22.160Z,28.29
2019-02-28T07:46:53.182Z,28.18
2019-02-28T07:49:25.911Z,28.10
2019-02-28T07:51:57.962Z,28.03
2019-02-28T07:54:31.203Z,28.02
2019-02-28T07:57:02.488Z,28.14
2019-02-28T07:59:33.753Z,28.70
2019-02-28T08:02:04.964Z,29.09
2019-02-28T08:04:36.231Z,30.33
2019-02-28T08:07:07.504Z,31.18
2019-02-28T08:09:40.603Z,30.96
2019-02-28T08:12:12.271Z,30.95
2019-02-28T08:14:43.630Z,31.89
2019-02-28T08:17:16.245Z,32.03
2019-02-28T08:19:47.432Z,32.04
2019-02-28T08:22:23.237Z,31.99
2019-02-28T08:24:52.133Z,31.96
2019-02-28T08:27:25.366Z,31.80
2019-02-28T08:29:57.362Z,31.47
2019-02-28T08:32:28.568Z,31.13
2019-02-28T08:34:59.796Z,31.83
2019-02-28T08:37:32.236Z,31.35
2019-02-28T08:40:03.636Z,31.79
2019-02-28T08:42:38.447Z,31.61
2019-02-28T08:45:10.860Z,31.57
2019-02-28T08:47:42.156Z,31.68
2019-02-28T08:50:20.628Z,31.71
2019-02-28T08:52:53.323Z,31.63
2019-02-28T08:55:28.692Z,31.37
2019-02-28T08:58:04.321Z,31.46
2019-02-28T09:00:32.543Z,31.55
2019-02-28T09:03:03.709Z,31.50
2019-02-28T09:05:35.011Z,31.58
2019-02-28T09:08:06.296Z,31.65
2019-02-28T09:10:37.617Z,31.59
2019-02-28T09:13:08.973Z,31.36
2019-02-28T09:15:40.147Z,31.90
2019-02-28T09:18:11.536Z,31.96
2019-02-28T09:20:45.143Z,32.21
2019-02-28T09:23:15.892Z,32.40
2019-02-28T09:25:47.181Z,32.54
2019-02-28T09:28:20.832Z,32.77
2019-02-28T09:30:57.750Z,32.72
2019-02-28T09:33:29.952Z,32.12
2019-02-28T09:36:01.149Z,32.05
2019-02-28T09:38:32.364Z,31.93
2019-02-28T09:41:04.498Z,31.92
2019-02-28T09:43:36.653Z,32.14
2019-02-28T09:46:09.125Z,31.89
2019-02-28T09:48:47.386Z,32.12
2019-02-28T09:51:20.511Z,32.06
2019-02-28T09:53:52.753Z,32.40
2019-02-28T09:56:25.164Z,32.56
2019-02-28T09:59:00.254Z,32.91
2019-02-28T10:01:33.161Z,32.94
2019-02-28T10:04:07.264Z,32.81
2019-02-28T10:06:39.940Z,32.81
2019-02-28T10:09:12.381Z,32.90
2019-02-28T10:11:48.373Z,32.91
2019-02-28T10:14:21.155Z,32.83
2019-02-28T10:16:53.669Z,33.04
2019-02-28T10:19:25.570Z,33.13
2019-02-28T10:21:57.395Z,33.85
2019-02-28T10:24:31.445Z,33.65
2019-02-28T10:27:03.497Z,34.10
2019-02-28T10:33:35.646Z,33.97
2019-02-28T10:36:09.305Z,34.01
2019-02-28T10:38:41.625Z,34.14
2019-02-28T10:41:12.901Z,34.18
2019-02-28T10:43:49.775Z,34.27
2019-02-28T10:46:20.090Z,34.58
2019-02-28T10:48:51.096Z,34.66
2019-02-28T10:51:22.434Z,34.77
2019-02-28T10:53:53.938Z,34.60
2019-02-28T10:56:25.135Z,34.68
2019-02-28T10:58:56.536Z,34.65
2019-02-28T11:03:00.111Z,34.75
2019-02-28T11:05:38.009Z,32.70
2019-02-28T11:08:14.832Z,39.22
2019-02-28T11:10:47.347Z,44.94
2019-02-28T11:13:21.312Z,47.56
2019-02-28T11:15:53.145Z,50.01
2019-02-28T11:18:24.365Z,51.29
2019-02-28T11:20:58.044Z,51.81
2019-02-28T11:23:32.648Z,52.09
2019-02-28T11:26:06.466Z,51.68
2019-02-28T11:28:38.626Z,52.24
2019-02-28T11:31:11.215Z,51.71
2019-02-28T11:33:44.403Z,51.53
2019-02-28T11:36:15.599Z,51.33
2019-02-28T11:38:52.461Z,49.87
2019-02-28T11:41:23.158Z,48.11
2019-02-28T11:43:54.891Z,47.30
2019-02-28T11:46:26.350Z,46.51
2019-02-28T11:48:57.822Z,45.81
2019-02-28T11:51:30.383Z,45.25
2019-02-28T11:54:06.492Z,45.10
2019-02-28T11:56:39.531Z,45.38
2019-02-28T11:59:12.655Z,45.38
2019-02-28T12:01:47.479Z,45.69
2019-02-28T12:04:20.970Z,45.85
2019-02-28T12:06:57.399Z,45.63
2019-02-28T12:09:29.171Z,45.83
2019-02-28T12:12:10.398Z,45.68
2019-02-28T12:14:43.965Z,45.49
2019-02-28T12:17:15.757Z,45.63
2019-02-28T12:19:50.646Z,46.54
2019-02-28T12:22:25.542Z,46.45
2019-02-28T12:24:58.257Z,46.72
2019-02-28T12:27:32.786Z,46.57
2019-02-28T12:30:06.792Z,46.35
2019-02-28T12:32:43.453Z,46.73
2019-02-28T12:35:16.949Z,46.87
2019-02-28T12:37:49.056Z,47.28
2019-02-28T12:40:25.413Z,47.64
2019-02-28T12:43:09.891Z,47.96
2019-02-28T12:45:46.989Z,48.31
2019-02-28T12:48:21.178Z,48.57
2019-02-28T12:50:52.634Z,48.65
2019-02-28T12:53:27.835Z,48.64
2019-02-28T12:56:01.644Z,48.99
2019-02-28T12:58:38.923Z,49.39
2019-02-28T13:01:08.970Z,48.78
2019-02-28T13:03:42.550Z,48.81
2019-02-28T13:06:13.911Z,48.81
2019-02-28T13:08:45.384Z,48.69
2019-02-28T13:11:17.718Z,48.35
2019-02-28T13:13:51.870Z,48.38
2019-02-28T13:16:23.145Z,48.31
2019-02-28T13:18:57.249Z,48.28
2019-02-28T13:21:31.223Z,48.60
2019-02-28T13:24:05.933Z,48.71
2019-02-28T13:26:37.992Z,48.80
2019-02-28T13:29:11.792Z,48.89
2019-02-28T13:31:43.009Z,48.85
2019-02-28T13:34:16.000Z,48.81
2019-02-28T13:36:48.973Z,48.58
2019-02-28T13:39:27.488Z,48.83
2019-02-28T13:42:03.000Z,49.16
2019-02-28T13:44:37.924Z,48.51
2019-02-28T13:47:10.888Z,48.54
2019-02-28T13:49:43.113Z,48.72
2019-02-28T13:52:20.497Z,48.70
2019-02-28T13:54:51.931Z,48.83
2019-02-28T13:57:23.408Z,49.02
2019-02-28T13:59:54.707Z,48.81
2019-02-28T14:02:29.820Z,49.19
2019-02-28T14:05:02.928Z,48.57
2019-02-28T14:07:35.565Z,48.37
2019-02-28T14:10:11.513Z,48.62
2019-02-28T14:12:43.177Z,48.67
2019-02-28T14:15:19.915Z,48.54
2019-02-28T14:17:53.254Z,48.90
2019-02-28T14:20:28.462Z,48.89
2019-02-28T14:23:00.025Z,48.91
2019-02-28T14:25:36.386Z,48.92
2019-02-28T14:28:06.843Z,49.10
2019-02-28T14:30:39.528Z,48.80
2019-02-28T14:33:16.204Z,48.17
2019-02-28T14:35:57.543Z,47.63
2019-02-28T14:38:29.599Z,47.41
2019-02-28T14:41:02.337Z,46.89
2019-02-28T14:43:35.197Z,46.81
2019-02-28T14:46:06.505Z,46.54
2019-02-28T14:48:39.898Z,46.61
2019-02-28T14:51:10.930Z,46.90
2019-02-28T14:53:45.482Z,46.86
2019-02-28T14:56:16.941Z,46.91
2019-02-28T14:58:54.126Z,46.84
2019-02-28T15:01:24.224Z,46.89
2019-02-28T15:03:56.969Z,46.91
2019-02-28T15:06:29.538Z,46.85
2019-02-28T15:09:04.733Z,46.83
2019-02-28T15:11:37.447Z,47.08
2019-02-28T15:14:10.262Z,46.99
2019-02-28T15:16:41.640Z,47.14
2019-02-28T15:19:14.463Z,47.32
2019-02-28T15:21:50.757Z,47.44
2019-02-28T15:24:22.004Z,47.38
2019-02-28T15:26:55.240Z,47.77
2019-02-28T15:29:26.979Z,47.74
2019-02-28T15:31:58.301Z,47.93
2019-02-28T15:34:29.575Z,47.91
2019-02-28T15:37:02.465Z,47.86
2019-02-28T15:39:35.842Z,48.01
2019-02-28T15:42:08.181Z,48.21
2019-02-28T15:44:40.394Z,48.43
2019-02-28T15:47:11.695Z,48.53
2019-02-28T15:49:44.056Z,48.51
2019-02-28T15:52:16.444Z,48.71
2019-02-28T15:54:49.059Z,48.72
2019-02-28T15:57:21.128Z,48.77
2019-02-28T15:59:52.620Z,48.81
2019-02-28T16:02:23.871Z,49.24
2019-02-28T16:04:57.630Z,48.97
2019-02-28T16:07:33.348Z,49.24
2019-02-28T16:10:02.854Z,49.61
2019-02-28T16:12:35.113Z,49.96
2019-02-28T16:15:12.587Z,50.14
2019-02-28T16:17:46.413Z,50.69
2019-02-28T16:20:18.109Z,51.14
2019-02-28T16:22:53.100Z,51.65
2019-02-28T16:25:28.621Z,52.14
2019-02-28T16:28:00.057Z,52.45
2019-02-28T16:30:32.105Z,52.93
2019-02-28T16:33:05.174Z,53.13
2019-02-28T16:35:39.143Z,53.13
2019-02-28T16:38:11.266Z,53.01
2019-02-28T16:40:43.787Z,53.31
2019-02-28T16:43:17.407Z,53.36
2019-02-28T16:45:49.384Z,53.55
2019-02-28T16:48:24.063Z,53.94
2019-02-28T16:51:06.086Z,54.05
2019-02-28T16:53:37.390Z,54.13
2019-02-28T16:56:09.585Z,54.15
2019-02-28T16:58:41.444Z,54.29
2019-02-28T17:01:12.706Z,54.84
2019-02-28T17:03:43.956Z,55.18
2019-02-28T17:06:15.999Z,55.32
2019-02-28T17:08:51.509Z,55.49
2019-02-28T17:11:24.025Z,56.03
2019-02-28T17:14:01.171Z,55.49
2019-02-28T17:16:39.517Z,55.58
2019-02-28T17:19:10.873Z,55.82
2019-02-28T17:21:43.270Z,55.96
2019-02-28T17:24:17.127Z,56.19
2019-02-28T17:26:52.744Z,55.77
2019-02-28T17:29:29.449Z,56.26
2019-02-28T17:32:03.517Z,56.33
2019-02-28T17:34:34.846Z,56.61
2019-02-28T17:37:06.349Z,56.89
2019-02-28T17:39:39.561Z,57.08
2019-02-28T17:42:14.812Z,57.25
2019-02-28T17:44:46.902Z,57.37
2019-02-28T17:47:41.504Z,57.79
2019-02-28T17:50:28.110Z,58.18
2019-02-28T17:53:17.443Z,58.80
2019-02-28T17:55:59.291Z,59.27
2019-02-28T17:59:11.823Z,59.54
2019-02-28T18:02:01.567Z,59.41
2019-02-28T18:04:38.015Z,58.58
2019-02-28T18:07:25.176Z,58.60
2019-02-28T18:10:15.795Z,59.39
2019-02-28T18:13:02.137Z,59.73
2019-02-28T18:15:42.080Z,60.07
2019-02-28T18:18:33.299Z,60.07
2019-02-28T18:21:28.399Z,60.48
2019-02-28T18:24:41.165Z,60.97
2019-02-28T18:27:26.446Z,60.96
2019-02-28T18:30:21.419Z,60.84
2019-02-28T18:32:53.831Z,61.14
2019-02-28T18:35:25.159Z,61.61
2019-02-28T18:37:57.403Z,62.34
2019-02-28T18:40:29.445Z,62.69
2019-02-28T18:43:01.761Z,62.68
2019-02-28T18:45:36.446Z,62.71
2019-02-28T18:48:07.670Z,62.57
2019-02-28T18:50:40.418Z,62.82
2019-02-28T18:53:29.530Z,62.92
2019-02-28T18:56:03.710Z,63.08
2019-02-28T18:58:37.515Z,62.76
2019-02-28T19:01:10.322Z,63.15
2019-02-28T19:03:42.616Z,63.77
2019-02-28T19:06:14.320Z,64.18
2019-02-28T19:08:45.645Z,64.46
2019-02-28T19:11:17.081Z,63.85
2019-02-28T19:13:48.413Z,63.90
2019-02-28T19:16:19.744Z,63.93
2019-02-28T19:18:51.179Z,63.98
2019-02-28T19:21:22.429Z,63.82
2019-02-28T19:23:53.885Z,63.98
2019-02-28T19:26:25.208Z,63.99
2019-02-28T19:28:57.167Z,64.16
2019-02-28T19:31:28.637Z,64.36
2019-02-28T19:33:59.695Z,64.49
2019-02-28T19:36:31.005Z,64.55
2019-02-28T19:39:02.257Z,64.38
2019-02-28T19:41:36.561Z,64.29
2019-02-28T19:44:08.165Z,64.35
2019-02-28T19:46:39.435Z,64.38
2019-02-28T19:49:11.468Z,64.49
2019-02-28T19:51:42.713Z,64.38
2019-02-28T19:54:15.447Z,64.18
2019-02-28T19:56:46.817Z,64.31
2019-02-28T19:59:18.152Z,64.64
2019-02-28T20:01:49.573Z,64.78
2019-02-28T20:04:20.848Z,65.14
2019-02-28T20:06:52.213Z,65.34
2019-02-28T20:09:23.448Z,65.72
2019-02-28T20:11:54.854Z,65.96
2019-02-28T20:14:26.099Z,66.25
2019-02-28T20:16:57.634Z,66.31
2019-02-28T20:19:28.978Z,66.59
2019-02-28T20:22:00.443Z,66.51
2019-02-28T20:24:31.897Z,66.67
2019-02-28T20:27:03.272Z,66.62
2019-02-28T20:29:35.023Z,66.53
2019-02-28T20:32:06.222Z,66.55
2019-02-28T20:34:37.466Z,66.70
2019-02-28T20:37:09.718Z,66.97
2019-02-28T20:39:41.027Z,67.28
2019-02-28T20:42:12.329Z,67.54
2019-02-28T20:44:43.644Z,67.59
2019-02-28T20:47:14.966Z,67.49
2019-02-28T20:49:46.229Z,67.36
2019-02-28T20:52:17.503Z,67.24
2019-02-28T20:54:48.680Z,67.30
2019-02-28T20:57:20.113Z,67.40
2019-02-28T20:59:51.277Z,67.69
2019-02-28T21:02:22.514Z,67.79
2019-02-28T21:04:53.757Z,67.69
2019-02-28T21:07:25.046Z,67.89
2019-02-28T21:09:56.325Z,67.78
2019-02-28T21:12:27.606Z,67.89
2019-02-28T21:14:58.908Z,67.82
2019-02-28T21:17:31.139Z,67.89
2019-02-28T21:20:02.432Z,67.99
2019-02-28T21:22:33.779Z,68.02
2019-02-28T21:25:07.719Z,68.08
2019-02-28T21:27:40.087Z,68.22
2019-02-28T21:30:25.228Z,68.10
2019-02-28T21:32:56.547Z,68.24
2019-02-28T21:35:27.894Z,68.31
2019-02-28T21:37:59.094Z,68.34
2019-02-28T21:40:30.584Z,68.10
2019-02-28T21:43:02.010Z,67.78
2019-02-28T21:45:33.756Z,67.78
2019-02-28T21:48:05.221Z,67.51
2019-02-28T21:50:36.499Z,67.49
2019-02-28T21:53:07.874Z,67.43
2019-02-28T21:55:39.218Z,67.62
2019-02-28T21:58:10.602Z,67.52
2019-02-28T22:00:41.817Z,68.10
2019-02-28T22:03:13.105Z,68.63
2019-02-28T22:05:44.356Z,69.06
2019-02-28T22:08:15.649Z,69.16
2019-02-28T22:10:46.939Z,69.49
2019-02-28T22:13:18.160Z,69.53
2019-02-28T22:15:49.423Z,69.49
2019-02-28T22:18:20.688Z,69.17
2019-02-28T22:20:51.944Z,69.03
2019-02-28T22:23:24.243Z,68.56
2019-02-28T22:25:55.512Z,68.21
2019-02-28T22:28:26.848Z,67.94
2019-02-28T22:30:59.669Z,67.95
2019-02-28T22:33:35.384Z,67.68
2019-02-28T22:36:14.250Z,67.50
2019-02-28T22:38:45.549Z,67.09
2019-02-28T22:41:16.726Z,66.85
2019-02-28T22:43:48.070Z,66.96
2019-02-28T22:46:19.275Z,66.68
2019-02-28T22:48:50.593Z,66.56
2019-02-28T22:51:21.874Z,66.59
2019-02-28T22:53:53.070Z,66.14
2019-02-28T22:56:24.312Z,65.64
2019-02-28T22:58:55.619Z,65.56
2019-02-28T23:01:26.922Z,65.13
2019-02-28T23:03:58.149Z,65.24
2019-02-28T23:06:29.414Z,65.28
2019-02-28T23:09:00.815Z,65.84
2019-02-28T23:11:33.598Z,65.37
2019-02-28T23:14:04.871Z,65.33
2019-02-28T23:16:36.113Z,64.67
2019-02-28T23:19:07.446Z,64.41
2019-02-28T23:21:38.678Z,64.38
2019-02-28T23:24:09.937Z,64.26
2019-02-28T23:27:13.022Z,64.08
2019-02-28T23:29:54.837Z,63.41
2019-02-28T23:32:35.990Z,62.48
2019-02-28T23:35:10.474Z,62.23
2019-02-28T23:37:41.667Z,62.60
2019-02-28T23:40:12.930Z,62.84
2019-02-28T23:42:45.627Z,62.63
2019-02-28T23:45:16.981Z,61.65
2019-02-28T23:47:48.166Z,61.57
2019-02-28T23:50:19.524Z,61.59
2019-02-28T23:52:50.723Z,61.99
2019-02-28T23:55:22.070Z,62.05
2019-02-28T23:57:54.355Z,62.17
